createdAt,value
2022-08-03T00:05:31.805Z,17.18
2022-08-03T00:25:31.790Z,17.18
2022-08-03T00:45:31.745Z,17.18
2022-08-03T01:05:31.771Z,17.18
2022-08-03T01:45:34.113Z,17.18
2022-08-03T02:05:31.656Z,17.18
2022-08-03T02:25:31.637Z,17.18
2022-08-03T04:05:31.509Z,17.19
2022-08-03T04:25:31.551Z,17.19
2022-08-03T04:45:31.191Z,17.19
2022-08-03T05:05:34.631Z,17.19
2022-08-03T06:05:31.356Z,17.19
2022-08-03T06:25:31.325Z,17.2
2022-08-03T06:45:31.949Z,17.2
2022-08-03T07:05:31.272Z,17.19
2022-08-03T07:25:30.951Z,17.19
2022-08-03T07:45:31.203Z,17.19
2022-08-03T08:05:31.156Z,17.2
2022-08-03T08:25:31.195Z,17.19
2022-08-03T08:45:31.110Z,17.19
2022-08-03T09:05:53.838Z,17.19
2022-08-03T09:25:31.045Z,17.19
2022-08-03T09:45:31.008Z,17.19
2022-08-03T10:05:30.960Z,17.18
2022-08-03T10:25:33.104Z,17.18
2022-08-03T10:45:30.912Z,17.18
2022-08-03T11:05:30.876Z,17.17
2022-08-03T11:25:53.301Z,17.16
2022-08-03T11:45:30.834Z,17.16
2022-08-03T12:25:38.997Z,17.16
2022-08-03T12:45:30.744Z,17.15
2022-08-03T13:05:30.481Z,17.15
2022-08-03T13:45:30.701Z,17.14
2022-08-03T14:05:32.169Z,17.13
2022-08-03T14:45:30.638Z,17.11
2022-08-03T15:05:30.635Z,17.1
2022-08-03T15:26:02.705Z,17.09
2022-08-03T15:45:35.503Z,17.08
2022-08-03T16:05:30.578Z,17.07
2022-08-03T16:25:30.561Z,17.06
2022-08-03T16:45:30.541Z,17.06
2022-08-03T17:05:32.547Z,17.05
2022-08-03T17:25:40.038Z,17.05
2022-08-03T17:45:42.347Z,17.04
2022-08-03T18:06:09.118Z,17.04
2022-08-03T18:25:43.161Z,17.04
2022-08-03T18:45:56.587Z,17.04
2022-08-03T19:05:40.052Z,17.05
2022-08-03T19:45:52.804Z,17.05
2022-08-03T20:05:30.234Z,17.06
2022-08-03T20:25:37.769Z,17.06
2022-08-03T20:45:58.770Z,17.06
2022-08-03T21:05:31.019Z,17.06
2022-08-03T21:25:30.176Z,17.06
2022-08-03T21:45:30.100Z,17.06
2022-08-03T22:05:42.776Z,17.06
2022-08-03T22:25:30.129Z,17.07
2022-08-03T22:45:45.411Z,17.06
2022-08-03T23:05:59.951Z,17.07
2022-08-03T23:25:30.206Z,17.07
2022-08-03T23:45:29.917Z,17.07
